Palanga, Lithuania
Current Conditions -  °F | °C
As of 5:50 AM on Sunday 26 Oct 2014 (Local Time) from EYPA Reporting Station
Broken Clouds Broken Clouds  
Wind Chill: 34°   Ceiling: 1600
Heat Index: 41°   Visibility: 6mi
Dew Point: 34°   Wind: 12mph
Humidity: 76%   Direction: 160°SSE
Pressure: 30.24"   Gusts: NA
Location:  55.92°N, 21.06°E
Report Text: EYPA 260250Z AUTO 16010KT 9999 BKN016/// 05/01 Q1024
Loading
Personal Weather Stations






























Interactive Weather Map
Tropical Storm Tracking
New forecast layout! Learn more

10-Day Weather Forecast

Advertisements
Track Severe Weather on mobile